Decoded Metar for KDIK (DICKINSON in ND, USA) (IATA:DIK) | Meteo·Mobile Aviation Weather
aviador You're here:

KDIK Decoded Metar

DICKINSON in ND, USA
Report Time2018-12-14 16:56:00
UTC Time2018-12-14 17:57:16
Flight Rules vfr VFR
Wind250° at 09 kt
W.Decomp.*RWY 25: 8.9 kt HW 1.6 kt LCW
RWY 32: 1.6 kt HW 8.9 kt LCW
W.Rank250° ranks 15
Current wind is below 250° avg. (9.0)
Visibility9999 m
Phenomena:N/A
Clouds:N/A
Expected CloudBase > 4,800 ft AGL from Temp-Dew spread
CeilingNone
Temp05°C (ISA -5)
Dew Point-7°C (42% RH)
AAT-1.0°C
QNH1019 hPa
Density Alt1,857 ft
Elevation2,585 ft
Report Wrong Elevation
Raw Report
KDIK 141656Z AUTO 25009KT 10SM CLR 05/M07 A3008 RMK AO2 SLP207
T00501067=

Extra information for KDIK:More info

Metar Taf Metar & Taf Last 4 Metars F.Rules Stats Wind Profile Meteogram Temp Stats Airport Information Weather charts Add Link Nearby VenuesMetar ALERT Operation Metar Decoded Social comments

AIRNAV info for KDIK